Orbital elements of COSMOS 970 DEB
| Launched | 20 December 1977 |
| Flight ended | – |
| Launch site | Tyuratam Missile and Space Center, Kazakhstan (Also known as Baikonur Cosmodrome) |
| Owner | Commonwealth of Independent States (former USSR) |
| NORAD ID | 12862 |
| Date fetched |
Epoch osculation |
Inc. [°] |
Ecc. | RA asc node [hr] |
Arg Peri. [°] |
Mean anom [°] |
Mean motion [rev/day] |
Abs. mag |
| Date fetched |
Epoch osculation |
Inc. [°] |
Ecc. | RA asc node [hr] |
Arg Peri. [°] |
Mean anom [°] |
Mean motion [rev/day] |
Abs. mag |
| 2026 May 03 17:57 | 2026 Apr 30 08:44:15 | 66.2040 | 0.01417 | 14.5947 | 223.4553 | 199.4328 | 14.13620 | – |
| 2026 May 02 17:57 | 2026 Apr 30 08:44:15 | 66.2040 | 0.01417 | 14.5947 | 223.4553 | 199.4328 | 14.13620 | – |
| 2026 May 01 17:56 | 2026 Apr 30 08:44:15 | 66.2040 | 0.01417 | 14.5947 | 223.4553 | 199.4328 | 14.13620 | – |
| 2026 Apr 30 17:56 | 2026 Apr 30 08:44:15 | 66.2040 | 0.01417 | 14.5947 | 223.4553 | 199.4328 | 14.13620 | – |
| 2026 Apr 29 17:57 | 2026 Apr 24 08:15:48 | 66.2033 | 0.01419 | 15.6374 | 226.9111 | 199.4328 | 14.13620 | – |
| 2026 Apr 28 17:56 | 2026 Apr 24 08:15:48 | 66.2033 | 0.01419 | 15.6374 | 226.9111 | 199.4328 | 14.13620 | – |
| 2026 Apr 27 17:58 | 2026 Apr 24 08:15:48 | 66.2033 | 0.01419 | 15.6374 | 226.9111 | 199.4328 | 14.13620 | – |
| 2026 Apr 26 17:58 | 2026 Apr 24 08:15:48 | 66.2033 | 0.01419 | 15.6374 | 226.9111 | 199.4328 | 14.13620 | – |
| 2026 Apr 25 17:58 | 2026 Apr 24 08:15:48 | 66.2033 | 0.01419 | 15.6374 | 226.9111 | 199.4328 | 14.13620 | – |
| 2026 Apr 24 17:59 | 2026 Apr 24 08:15:48 | 66.2033 | 0.01419 | 15.6374 | 226.9111 | 199.4328 | 14.13620 | – |
| 2026 Apr 23 17:57 | 2026 Apr 19 03:18:47 | 66.2030 | 0.01421 | 16.5392 | 229.9271 | 199.4328 | 14.13620 | – |
| 2026 Apr 22 17:57 | 2026 Apr 19 03:18:47 | 66.2030 | 0.01421 | 16.5392 | 229.9271 | 199.4328 | 14.13620 | – |
| 2026 Apr 21 17:57 | 2026 Apr 19 03:18:47 | 66.2030 | 0.01421 | 16.5392 | 229.9271 | 199.4328 | 14.13620 | – |
| 2026 Apr 20 17:57 | 2026 Apr 19 03:18:47 | 66.2030 | 0.01421 | 16.5392 | 229.9271 | 199.4328 | 14.13620 | – |
| 2026 Apr 19 17:58 | 2026 Apr 19 03:18:47 | 66.2030 | 0.01421 | 16.5392 | 229.9271 | 199.4328 | 14.13620 | – |
| 2026 Apr 18 17:56 | 2026 Apr 13 04:40:20 | 66.2031 | 0.01424 | 17.5687 | 233.3886 | 199.4328 | 14.13620 | – |
| 2026 Apr 16 17:57 | 2026 Apr 13 04:40:20 | 66.2031 | 0.01424 | 17.5687 | 233.3886 | 199.4328 | 14.13620 | – |
| 2026 Apr 14 17:57 | 2026 Apr 13 04:40:20 | 66.2031 | 0.01424 | 17.5687 | 233.3886 | 199.4328 | 14.13620 | – |
| 2026 Apr 13 17:57 | 2026 Apr 13 04:40:20 | 66.2031 | 0.01424 | 17.5687 | 233.3886 | 199.4328 | 14.13620 | – |
| 2026 Apr 12 17:57 | 2026 Apr 08 13:44:46 | 66.2033 | 0.01426 | 18.3693 | 236.0933 | 199.4328 | 14.13620 | – |
| 2026 Apr 11 17:57 | 2026 Apr 08 13:44:46 | 66.2033 | 0.01426 | 18.3693 | 236.0933 | 199.4328 | 14.13620 | – |
| 2026 Apr 10 17:58 | 2026 Apr 08 13:44:46 | 66.2033 | 0.01426 | 18.3693 | 236.0933 | 199.4328 | 14.13620 | – |
| 2026 Apr 09 18:01 | 2026 Apr 08 13:44:46 | 66.2033 | 0.01426 | 18.3693 | 236.0933 | 199.4328 | 14.13620 | – |
| 2026 Apr 08 17:57 | 2026 Apr 08 13:44:46 | 66.2033 | 0.01426 | 18.3693 | 236.0933 | 199.4328 | 14.13620 | – |
| 2026 Apr 07 17:57 | 2026 Apr 02 07:10:18 | 66.2040 | 0.01430 | 19.4561 | 239.7933 | 199.4328 | 14.13620 | – |
| 2026 Apr 06 17:57 | 2026 Apr 02 07:10:18 | 66.2040 | 0.01430 | 19.4561 | 239.7933 | 199.4328 | 14.13620 | – |